createdAt,value
2022-12-15T00:02:10.196Z,24.38
2022-12-15T00:04:55.278Z,37.70
2022-12-15T00:07:40.138Z,34.60
2022-12-15T00:10:25.555Z,25.92
2022-12-15T00:13:10.340Z,36.22
2022-12-15T00:15:55.787Z,34.60
2022-12-15T00:18:40.818Z,27.00
2022-12-15T00:21:25.610Z,35.28
2022-12-15T00:24:10.305Z,37.05
2022-12-15T00:26:55.055Z,36.78
2022-12-15T00:29:39.838Z,37.83
2022-12-15T00:32:24.678Z,37.67
2022-12-15T00:35:09.568Z,40.25
2022-12-15T00:37:54.280Z,37.47
2022-12-15T00:40:20.772Z,28.60
2022-12-15T00:42:47.766Z,38.55
2022-12-15T00:45:16.358Z,26.05
2022-12-15T00:47:42.941Z,38.72
2022-12-15T00:50:28.436Z,41.42
2022-12-15T00:53:13.273Z,33.35
2022-12-15T00:55:58.099Z,45.00
2022-12-15T00:58:42.918Z,39.55
2022-12-15T01:01:29.330Z,44.60
2022-12-15T01:04:14.559Z,37.42
2022-12-15T01:06:59.618Z,27.90
2022-12-15T01:09:44.936Z,40.72
2022-12-15T01:12:29.879Z,39.13
2022-12-15T01:15:14.720Z,40.03
2022-12-15T01:18:00.072Z,31.77
2022-12-15T01:20:26.584Z,43.40
2022-12-15T01:22:55.802Z,49.50
2022-12-15T01:25:24.706Z,29.65
2022-12-15T01:27:52.103Z,43.20
2022-12-15T01:30:21.735Z,32.00
2022-12-15T01:32:48.420Z,31.48
2022-12-15T01:35:15.555Z,43.25
2022-12-15T01:37:42.104Z,43.38
2022-12-15T01:40:30.261Z,35.63
2022-12-15T01:42:56.786Z,44.80
2022-12-15T01:45:29.296Z,44.80
2022-12-15T01:48:05.672Z,38.10
2022-12-15T01:50:37.058Z,42.33
2022-12-15T01:53:03.766Z,39.33
2022-12-15T01:55:31.901Z,41.10
2022-12-15T01:58:03.579Z,30.85
2022-12-15T02:00:30.908Z,41.47
2022-12-15T02:02:59.154Z,41.53
2022-12-15T02:05:25.750Z,34.08
2022-12-15T02:07:52.288Z,47.28
2022-12-15T02:10:18.852Z,39.45
2022-12-15T02:13:08.256Z,46.75
2022-12-15T02:15:47.869Z,28.73
2022-12-15T02:18:28.196Z,28.02
2022-12-15T02:21:09.575Z,40.90
2022-12-15T02:23:45.310Z,42.20
2022-12-15T02:26:20.613Z,40.25
2022-12-15T02:28:52.998Z,39.38
2022-12-15T02:31:50.966Z,40.97
2022-12-15T02:34:44.459Z,44.47
2022-12-15T02:37:44.981Z,41.17
2022-12-15T02:40:16.565Z,41.45
2022-12-15T02:42:47.911Z,35.60
2022-12-15T02:45:19.994Z,30.23
2022-12-15T02:48:07.745Z,43.92
2022-12-15T02:50:37.309Z,31.77
2022-12-15T02:53:21.485Z,31.70
2022-12-15T02:56:00.797Z,38.55
2022-12-15T02:58:30.730Z,31.48
2022-12-15T03:01:04.419Z,25.90
2022-12-15T03:03:34.979Z,36.38
2022-12-15T03:06:03.059Z,39.55
2022-12-15T03:08:30.924Z,39.80
2022-12-15T03:10:58.910Z,40.75
2022-12-15T03:13:25.689Z,40.60
2022-12-15T03:15:54.433Z,38.22
2022-12-15T03:18:21.568Z,40.83
2022-12-15T03:20:48.285Z,41.85
2022-12-15T03:23:15.608Z,40.22
2022-12-15T03:25:45.221Z,37.78
2022-12-15T03:28:12.563Z,32.38
2022-12-15T03:30:39.097Z,37.35
2022-12-15T03:33:05.899Z,39.50
2022-12-15T03:35:33.814Z,39.28
2022-12-15T03:38:00.781Z,38.13
2022-12-15T03:40:27.288Z,46.60
2022-12-15T03:42:53.858Z,37.53
2022-12-15T03:45:23.272Z,41.25
2022-12-15T03:47:50.478Z,33.15
2022-12-15T03:50:19.872Z,41.45
2022-12-15T03:52:53.752Z,32.00
2022-12-15T03:55:21.544Z,42.28
2022-12-15T03:57:48.775Z,47.83
2022-12-15T04:00:16.031Z,30.42
2022-12-15T04:02:43.408Z,42.13
2022-12-15T04:05:25.737Z,40.55
2022-12-15T04:07:53.185Z,41.58
2022-12-15T04:10:20.160Z,44.63
2022-12-15T04:12:46.724Z,47.88
2022-12-15T04:15:13.349Z,48.83
2022-12-15T04:17:40.017Z,45.00
2022-12-15T04:20:11.230Z,48.35
2022-12-15T04:22:42.739Z,47.10
2022-12-15T04:25:30.416Z,44.10
2022-12-15T04:28:15.689Z,49.38
2022-12-15T04:31:05.094Z,48.20
2022-12-15T04:33:50.656Z,27.38
2022-12-15T04:36:36.514Z,43.63
2022-12-15T04:39:24.426Z,50.47
2022-12-15T04:42:10.647Z,49.28
2022-12-15T04:44:55.965Z,46.42
2022-12-15T04:47:41.183Z,45.05
2022-12-15T04:50:26.411Z,46.08
2022-12-15T04:53:11.101Z,47.10
2022-12-15T04:55:56.939Z,46.60
2022-12-15T04:58:42.273Z,46.22
2022-12-15T05:01:27.113Z,49.10
2022-12-15T05:04:12.490Z,47.45
2022-12-15T05:06:57.638Z,50.47
2022-12-15T05:09:42.330Z,46.85
2022-12-15T05:12:27.135Z,44.83
2022-12-15T05:15:12.022Z,46.30
2022-12-15T05:17:56.951Z,44.85
2022-12-15T05:20:41.685Z,48.08
2022-12-15T05:23:26.475Z,47.00
2022-12-15T05:26:11.294Z,43.67
2022-12-15T05:28:56.120Z,44.28
2022-12-15T05:31:40.904Z,45.22
2022-12-15T05:34:07.382Z,50.90
2022-12-15T05:36:34.041Z,48.35
2022-12-15T05:39:00.534Z,48.45
2022-12-15T05:41:27.095Z,45.78
2022-12-15T05:43:53.573Z,45.10
2022-12-15T05:46:20.149Z,40.47
2022-12-15T05:48:46.785Z,47.55
2022-12-15T05:51:14.314Z,45.83
2022-12-15T05:53:42.093Z,52.80
2022-12-15T05:56:11.915Z,48.83
2022-12-15T05:58:44.851Z,47.63
2022-12-15T06:01:14.802Z,48.80
2022-12-15T06:03:41.860Z,48.28
2022-12-15T06:06:10.119Z,51.72
2022-12-15T06:08:39.623Z,49.08
2022-12-15T06:11:06.921Z,44.47
2022-12-15T06:13:35.352Z,49.55
2022-12-15T06:16:11.293Z,49.55
2022-12-15T06:18:41.302Z,51.40
2022-12-15T06:21:13.318Z,50.97
2022-12-15T06:23:40.294Z,49.97
2022-12-15T06:26:21.281Z,51.63
2022-12-15T06:28:49.293Z,44.90
2022-12-15T06:31:17.739Z,47.15
2022-12-15T06:33:44.754Z,48.97
2022-12-15T06:36:14.111Z,44.03
2022-12-15T06:38:43.577Z,47.50
2022-12-15T06:41:12.808Z,50.63
2022-12-15T06:43:39.675Z,53.42
2022-12-15T06:46:06.562Z,50.03
2022-12-15T06:48:33.411Z,53.63
2022-12-15T06:51:11.998Z,53.42
2022-12-15T06:53:49.069Z,47.60
2022-12-15T06:56:17.505Z,48.83
2022-12-15T06:58:47.005Z,42.03
2022-12-15T07:01:13.573Z,51.60
2022-12-15T07:03:40.758Z,49.17
2022-12-15T07:06:11.064Z,49.95
2022-12-15T07:08:41.286Z,46.92
2022-12-15T07:11:11.773Z,46.78
2022-12-15T07:13:38.709Z,44.97
2022-12-15T07:16:07.189Z,48.63
2022-12-15T07:18:33.913Z,44.97
2022-12-15T07:21:08.432Z,44.42
2022-12-15T07:23:53.264Z,41.05
2022-12-15T07:26:21.689Z,45.70
2022-12-15T07:28:48.260Z,39.78
2022-12-15T07:31:15.575Z,46.55
2022-12-15T07:33:42.815Z,49.97
2022-12-15T07:36:09.841Z,47.90
2022-12-15T07:38:36.600Z,43.00
2022-12-15T07:41:05.344Z,45.40
2022-12-15T07:43:32.805Z,40.90
2022-12-15T07:46:00.445Z,43.45
2022-12-15T07:48:27.432Z,40.58
2022-12-15T07:51:04.890Z,42.50
2022-12-15T07:53:34.711Z,40.05
2022-12-15T07:56:10.252Z,38.25
2022-12-15T07:58:38.363Z,39.28
2022-12-15T08:01:07.408Z,41.28
2022-12-15T08:03:35.741Z,34.45
2022-12-15T08:06:06.080Z,40.17
2022-12-15T08:08:34.095Z,29.05
2022-12-15T08:11:09.337Z,42.85
2022-12-15T08:16:23.403Z,45.30
2022-12-15T08:18:50.083Z,40.08
2022-12-15T08:21:17.688Z,43.22
2022-12-15T08:23:44.619Z,42.58
2022-12-15T08:26:13.913Z,35.92
2022-12-15T08:28:41.939Z,38.25
2022-12-15T08:31:14.656Z,46.33
2022-12-15T08:33:41.437Z,44.20
2022-12-15T08:36:10.966Z,41.90
2022-12-15T08:38:39.044Z,32.55
2022-12-15T08:41:19.603Z,47.00
2022-12-15T08:43:49.242Z,42.05
2022-12-15T08:46:21.246Z,30.02
2022-12-15T08:48:48.179Z,41.88
2022-12-15T08:51:15.229Z,43.45
2022-12-15T08:53:42.300Z,48.00
2022-12-15T08:56:12.192Z,40.30
2022-12-15T08:58:39.358Z,29.40
2022-12-15T09:01:08.577Z,32.17
2022-12-15T09:03:36.428Z,27.65
2022-12-15T09:06:04.372Z,41.10
2022-12-15T09:08:31.172Z,29.17
2022-12-15T09:10:58.866Z,45.33
2022-12-15T09:13:25.636Z,29.45
2022-12-15T09:16:09.257Z,38.83
2022-12-15T09:18:36.257Z,30.80
2022-12-15T09:21:04.860Z,44.40
2022-12-15T09:23:32.143Z,29.30
2022-12-15T09:26:15.606Z,41.65
2022-12-15T09:28:45.064Z,39.08
2022-12-15T09:31:21.283Z,46.83
2022-12-15T09:33:49.471Z,30.88
2022-12-15T09:36:16.418Z,39.92
2022-12-15T09:38:43.415Z,26.55
2022-12-15T09:41:15.744Z,42.90
2022-12-15T09:43:52.199Z,29.92
2022-12-15T09:46:39.911Z,43.13
2022-12-15T09:49:18.799Z,29.10
2022-12-15T09:51:53.587Z,46.72
2022-12-15T09:54:21.369Z,41.90
2022-12-15T09:56:53.277Z,30.55
2022-12-15T09:59:31.982Z,33.30
2022-12-15T10:02:12.291Z,34.17
2022-12-15T10:05:14.301Z,41.67
2022-12-15T10:07:46.300Z,31.73
2022-12-15T10:10:24.571Z,39.63
2022-12-15T10:13:04.865Z,28.45
2022-12-15T10:15:44.210Z,28.08
2022-12-15T10:18:22.480Z,29.42
2022-12-15T10:20:52.143Z,27.85
2022-12-15T10:23:18.633Z,27.20
2022-12-15T10:25:56.026Z,35.38
2022-12-15T10:29:03.169Z,27.38
2022-12-15T10:31:42.113Z,25.65
2022-12-15T10:34:25.266Z,27.88
2022-12-15T10:36:53.326Z,38.33
2022-12-15T10:39:20.955Z,27.58
2022-12-15T10:42:21.293Z,38.15
2022-12-15T10:44:50.875Z,25.88
2022-12-15T10:47:28.279Z,25.75
2022-12-15T10:50:11.055Z,35.17
2022-12-15T10:52:38.247Z,41.20
2022-12-15T10:55:37.085Z,30.30
2022-12-15T10:58:16.233Z,94.95
2022-12-15T11:00:42.711Z,35.63
2022-12-15T11:03:24.283Z,41.42
2022-12-15T11:05:55.491Z,31.17
2022-12-15T11:08:23.772Z,44.67
2022-12-15T11:11:12.140Z,30.15
2022-12-15T11:13:39.951Z,30.02
2022-12-15T11:16:19.988Z,30.83
2022-12-15T11:19:01.495Z,29.63
2022-12-15T11:21:33.180Z,30.38
2022-12-15T11:24:06.710Z,34.92
2022-12-15T11:27:09.829Z,31.98
2022-12-15T11:30:00.054Z,29.05
2022-12-15T11:32:31.595Z,27.60
2022-12-15T11:34:58.416Z,27.77
2022-12-15T11:37:36.915Z,30.63
2022-12-15T11:40:17.467Z,29.83
2022-12-15T11:43:02.761Z,30.30
2022-12-15T11:45:47.620Z,31.73
2022-12-15T11:48:32.344Z,30.75
2022-12-15T11:51:10.806Z,34.20
2022-12-15T11:54:11.171Z,35.20
2022-12-15T11:56:45.443Z,33.80
2022-12-15T11:59:43.021Z,37.95
2022-12-15T12:02:34.415Z,39.45
2022-12-15T12:05:28.777Z,39.83
2022-12-15T12:08:04.279Z,54.53
2022-12-15T12:10:44.982Z,34.03
2022-12-15T12:13:28.719Z,59.92
2022-12-15T12:16:28.649Z,59.33
2022-12-15T12:19:02.922Z,37.83
2022-12-15T12:21:38.520Z,84.60
2022-12-15T12:24:32.902Z,37.55
2022-12-15T12:27:08.926Z,49.03
2022-12-15T12:29:45.383Z,37.30
2022-12-15T12:32:37.207Z,37.95
2022-12-15T12:35:31.312Z,43.00
2022-12-15T12:41:07.663Z,32.85
2022-12-15T12:43:58.320Z,35.28
2022-12-15T12:46:34.251Z,37.15
2022-12-15T12:49:13.521Z,44.75
2022-12-15T12:51:41.968Z,37.22
2022-12-15T12:54:36.619Z,34.88
2022-12-15T12:57:12.215Z,35.90
2022-12-15T12:59:42.334Z,34.53
2022-12-15T13:04:49.045Z,36.95
2022-12-15T13:07:36.333Z,33.95
2022-12-15T13:10:09.032Z,34.95
2022-12-15T13:12:51.651Z,31.60
2022-12-15T13:15:22.059Z,35.97
2022-12-15T13:17:55.939Z,33.08
2022-12-15T13:20:33.496Z,33.20
2022-12-15T13:23:21.799Z,38.35
2022-12-15T13:25:57.077Z,54.00
2022-12-15T13:28:36.025Z,38.67
2022-12-15T13:31:21.910Z,50.40
2022-12-15T13:33:51.609Z,33.00
2022-12-15T13:36:37.099Z,44.25
2022-12-15T13:39:12.804Z,53.53
2022-12-15T13:44:54.890Z,51.70
2022-12-15T13:47:30.008Z,55.72
2022-12-15T13:50:02.784Z,52.97
2022-12-15T13:53:17.264Z,41.13
2022-12-15T13:55:39.097Z,53.42
2022-12-15T13:58:17.402Z,71.00
2022-12-15T14:00:54.858Z,104.72
2022-12-15T14:03:22.296Z,101.88
2022-12-15T14:08:44.934Z,38.88
2022-12-15T14:11:51.329Z,48.30
2022-12-15T14:14:19.284Z,53.30
2022-12-15T14:16:51.087Z,49.88
2022-12-15T14:19:18.209Z,39.22
2022-12-15T14:21:50.658Z,45.08
2022-12-15T14:24:40.745Z,57.90
2022-12-15T14:27:08.343Z,47.50
2022-12-15T14:29:34.968Z,51.13
2022-12-15T14:32:02.307Z,50.55
2022-12-15T14:34:35.852Z,38.60
2022-12-15T14:37:07.732Z,52.13
2022-12-15T14:39:43.120Z,51.83
2022-12-15T14:42:23.848Z,49.40
2022-12-15T14:44:54.959Z,55.97
2022-12-15T14:47:29.596Z,55.70
2022-12-15T14:49:58.480Z,53.65
2022-12-15T14:52:35.652Z,50.10
2022-12-15T14:55:41.940Z,53.92
2022-12-15T14:58:29.869Z,58.40
2022-12-15T15:01:20.898Z,52.08
2022-12-15T15:03:57.041Z,64.47
2022-12-15T15:06:33.227Z,57.65
2022-12-15T15:09:22.913Z,60.03
2022-12-15T15:11:54.593Z,42.63
2022-12-15T15:14:28.521Z,57.53
2022-12-15T15:17:05.458Z,53.67
2022-12-15T15:19:37.654Z,61.53
2022-12-15T15:22:06.145Z,63.15
2022-12-15T15:24:36.501Z,63.03
2022-12-15T15:27:25.721Z,55.83
2022-12-15T15:29:53.132Z,63.80
2022-12-15T15:32:23.584Z,65.55
2022-12-15T15:34:50.142Z,66.38
2022-12-15T15:37:25.049Z,59.65
2022-12-15T15:39:54.115Z,67.40
2022-12-15T15:42:21.063Z,63.65
2022-12-15T15:44:47.613Z,63.40
2022-12-15T15:47:23.688Z,63.05
2022-12-15T15:49:51.313Z,65.30
2022-12-15T15:52:17.966Z,56.28
2022-12-15T15:54:45.715Z,64.10
2022-12-15T15:57:16.167Z,59.47
2022-12-15T15:59:44.663Z,61.97
2022-12-15T16:02:13.462Z,63.92
2022-12-15T16:04:42.306Z,61.05
2022-12-15T16:07:27.554Z,64.28
2022-12-15T16:09:55.336Z,67.47
2022-12-15T16:12:46.437Z,64.60
2022-12-15T16:15:15.689Z,76.00
2022-12-15T16:17:43.083Z,66.30
2022-12-15T16:20:12.747Z,64.07
2022-12-15T16:22:40.724Z,72.18
2022-12-15T16:25:13.882Z,64.32
2022-12-15T16:27:40.728Z,67.40
2022-12-15T16:30:28.447Z,68.15
2022-12-15T16:32:55.880Z,60.53
2022-12-15T16:35:26.339Z,66.22
2022-12-15T16:37:53.220Z,59.70
2022-12-15T16:40:23.658Z,55.13
2022-12-15T16:43:01.510Z,64.95
2022-12-15T16:45:31.211Z,57.30
2022-12-15T16:47:58.428Z,45.92
2022-12-15T16:50:38.812Z,66.47
2022-12-15T16:53:06.550Z,64.15
2022-12-15T16:55:39.926Z,61.05
2022-12-15T16:58:07.040Z,62.85
2022-12-15T17:00:35.237Z,65.88
2022-12-15T17:03:03.087Z,65.00
2022-12-15T17:05:36.109Z,67.80
2022-12-15T17:08:05.940Z,66.93
2022-12-15T17:10:33.139Z,52.53
2022-12-15T17:13:11.822Z,64.50
2022-12-15T17:15:40.151Z,68.10
2022-12-15T17:18:06.958Z,65.80
2022-12-15T17:20:33.578Z,72.18
2022-12-15T17:23:07.078Z,71.07
2022-12-15T17:28:33.048Z,72.93
2022-12-15T17:31:00.495Z,74.00
2022-12-15T17:33:29.157Z,69.95
2022-12-15T17:36:00.507Z,47.90
2022-12-15T17:38:27.811Z,71.57
2022-12-15T17:40:55.313Z,68.28
2022-12-15T17:43:27.155Z,52.65
2022-12-15T17:45:56.181Z,74.70
2022-12-15T17:48:23.783Z,75.97
2022-12-15T17:50:53.164Z,79.90
2022-12-15T18:23:48.100Z,52.13
2022-12-15T18:26:21.010Z,63.83
2022-12-15T18:28:49.601Z,60.15
2022-12-15T18:31:26.114Z,61.45
2022-12-15T18:33:53.544Z,63.92
2022-12-15T18:36:20.221Z,54.42
2022-12-15T18:38:46.789Z,59.63
2022-12-15T18:44:56.667Z,47.17
2022-12-15T18:59:10.431Z,42.67
2022-12-15T19:01:37.168Z,60.17
2022-12-15T19:04:03.943Z,57.80
2022-12-15T19:06:36.174Z,61.67
2022-12-15T19:09:04.640Z,55.97
2022-12-15T19:11:31.447Z,62.78
2022-12-15T19:14:00.263Z,66.45
2022-12-15T19:16:27.571Z,62.33
2022-12-15T19:19:17.054Z,57.80
2022-12-15T19:22:02.673Z,46.90
2022-12-15T19:24:49.754Z,69.90
2022-12-15T19:27:20.216Z,67.50
2022-12-15T19:29:47.559Z,52.80
2022-12-15T19:32:14.083Z,69.40
2022-12-15T19:34:40.734Z,59.97
2022-12-15T19:37:13.894Z,67.75
2022-12-15T19:39:40.615Z,68.75
2022-12-15T19:42:17.753Z,65.05
2022-12-15T19:44:44.311Z,62.08
2022-12-15T19:47:13.638Z,66.90
2022-12-15T19:49:41.459Z,45.63
2022-12-15T19:52:27.097Z,67.43
2022-12-15T19:54:53.564Z,75.15
2022-12-15T19:57:21.126Z,72.68
2022-12-15T19:59:47.679Z,56.28
2022-12-15T20:02:19.652Z,62.45
2022-12-15T20:04:47.592Z,61.63
2022-12-15T20:07:30.477Z,63.63
2022-12-15T20:09:58.117Z,77.55
2022-12-15T20:12:25.186Z,61.72
2022-12-15T20:14:51.658Z,64.40
2022-12-15T20:17:18.136Z,67.20
2022-12-15T20:19:44.699Z,69.45
2022-12-15T20:22:15.552Z,70.00
2022-12-15T20:24:42.877Z,68.03
2022-12-15T20:27:18.295Z,75.03
2022-12-15T20:29:45.203Z,74.13
2022-12-15T20:32:17.470Z,68.82
2022-12-15T20:34:44.670Z,64.13
2022-12-15T20:37:37.542Z,73.68
2022-12-15T20:40:06.683Z,65.60
2022-12-15T20:42:33.183Z,67.60
2022-12-15T20:44:59.704Z,75.70
2022-12-15T20:47:27.526Z,70.95
2022-12-15T20:49:54.958Z,71.03
2022-12-15T20:52:25.241Z,74.38
2022-12-15T20:54:53.575Z,62.33
2022-12-15T20:57:20.409Z,68.90
2022-12-15T20:59:46.971Z,67.03
2022-12-15T21:02:18.375Z,55.15
2022-12-15T21:04:45.376Z,60.25
2022-12-15T21:07:12.374Z,56.67
2022-12-15T21:09:39.244Z,62.38
2022-12-15T21:12:19.247Z,58.53
2022-12-15T21:14:45.769Z,63.88
2022-12-15T21:17:17.523Z,70.78
2022-12-15T21:19:44.445Z,75.03
2022-12-15T21:22:25.923Z,75.13
2022-12-15T21:24:55.309Z,77.00
2022-12-15T21:27:22.185Z,77.55
2022-12-15T21:29:52.579Z,65.10
2022-12-15T21:32:19.924Z,86.30
2022-12-15T21:34:46.512Z,83.55
2022-12-15T21:37:28.527Z,74.35
2022-12-15T21:39:55.577Z,59.08
2022-12-15T21:42:22.763Z,71.55
2022-12-15T21:44:49.282Z,72.78
2022-12-15T21:47:21.461Z,66.63
2022-12-15T21:49:48.019Z,68.32
2022-12-15T21:52:16.054Z,63.40
2022-12-15T21:54:42.637Z,67.72
2022-12-15T21:57:11.804Z,55.13
2022-12-15T21:59:38.848Z,59.03
2022-12-15T22:02:26.280Z,66.47
2022-12-15T22:04:53.027Z,75.32
2022-12-15T22:07:21.756Z,66.95
2022-12-15T22:09:48.197Z,69.20
2022-12-15T22:12:24.152Z,61.05
2022-12-15T22:14:50.717Z,62.55
2022-12-15T22:17:22.458Z,65.13
2022-12-15T22:19:49.020Z,66.25
2022-12-15T22:22:16.632Z,68.70
2022-12-15T22:24:43.429Z,60.20
2022-12-15T22:27:32.703Z,69.57
2022-12-15T22:29:59.185Z,47.20
2022-12-15T22:32:25.942Z,62.95
2022-12-15T22:34:52.469Z,60.83
2022-12-15T22:37:18.957Z,72.55
2022-12-15T22:39:45.409Z,67.65
2022-12-15T22:42:16.704Z,61.28
2022-12-15T22:44:44.458Z,66.50
2022-12-15T22:47:11.213Z,67.03
2022-12-15T22:49:40.317Z,57.85
2022-12-15T22:52:16.888Z,47.40
2022-12-15T22:54:45.970Z,62.92
2022-12-15T22:57:24.794Z,71.20
2022-12-15T23:00:11.761Z,59.25
2022-12-15T23:02:41.785Z,61.15
2022-12-15T23:07:35.856Z,55.72
2022-12-15T23:10:21.683Z,58.53
2022-12-15T23:12:48.625Z,60.13
2022-12-15T23:15:34.050Z,64.63
2022-12-15T23:18:00.668Z,60.13
2022-12-15T23:20:27.139Z,61.55
2022-12-15T23:22:53.725Z,56.67
2022-12-15T23:25:21.369Z,61.47
2022-12-15T23:27:47.925Z,63.13
2022-12-15T23:30:14.692Z,54.78
2022-12-15T23:32:41.208Z,57.28
2022-12-15T23:35:08.038Z,38.60
2022-12-15T23:37:34.576Z,52.42
2022-12-15T23:40:01.137Z,55.05
2022-12-15T23:42:27.649Z,55.33
2022-12-15T23:44:54.219Z,51.08
2022-12-15T23:47:21.401Z,51.35
2022-12-15T23:49:47.922Z,55.03
2022-12-15T23:52:14.407Z,53.97
2022-12-15T23:54:40.888Z,51.28
2022-12-15T23:57:07.354Z,55.28
2022-12-15T23:59:34.775Z,49.80
